createdAt,value
2017-05-18T00:02:03.382Z,24.40
2017-05-18T00:04:30.702Z,24.40
2017-05-18T00:06:58.004Z,24.40
2017-05-18T00:09:25.343Z,24.30
2017-05-18T00:11:52.665Z,24.20
2017-05-18T00:14:19.989Z,24.30
2017-05-18T00:16:47.256Z,24.30
2017-05-18T00:19:14.618Z,24.30
2017-05-18T00:21:41.971Z,24.30
2017-05-18T00:24:09.389Z,24.30
2017-05-18T00:26:36.733Z,24.30
2017-05-18T00:29:04.106Z,24.20
2017-05-18T00:31:31.422Z,24.20
2017-05-18T00:33:58.750Z,24.10
2017-05-18T00:36:26.113Z,24.10
2017-05-18T00:38:53.445Z,24.10
2017-05-18T00:41:20.784Z,24.10
2017-05-18T00:43:48.107Z,24.10
2017-05-18T00:46:15.446Z,24.00
2017-05-18T00:48:42.773Z,24.00
2017-05-18T00:51:10.190Z,23.90
2017-05-18T00:53:37.533Z,23.90
2017-05-18T00:56:04.947Z,23.80
2017-05-18T00:58:32.341Z,23.80
2017-05-18T01:00:59.686Z,23.80
2017-05-18T01:03:26.994Z,23.80
2017-05-18T01:05:54.338Z,23.80
2017-05-18T01:08:21.667Z,23.70
2017-05-18T01:10:48.989Z,23.70
2017-05-18T01:13:17.822Z,23.70
2017-05-18T01:15:45.174Z,23.70
2017-05-18T01:18:12.546Z,23.50
2017-05-18T01:20:39.875Z,23.60
2017-05-18T01:23:07.250Z,23.60
2017-05-18T01:25:35.061Z,23.60
2017-05-18T01:28:02.365Z,23.60
2017-05-18T01:30:29.704Z,23.70
2017-05-18T01:32:57.068Z,23.60
2017-05-18T01:35:24.450Z,23.70
2017-05-18T01:37:51.831Z,23.70
2017-05-18T01:40:19.554Z,23.80
2017-05-18T01:42:46.930Z,23.90
2017-05-18T01:45:14.316Z,23.80
2017-05-18T01:47:41.670Z,23.90
2017-05-18T01:50:09.047Z,23.80
2017-05-18T01:52:38.094Z,23.80
2017-05-18T01:55:05.461Z,23.90
2017-05-18T01:57:32.783Z,23.90
2017-05-18T02:00:00.110Z,23.90
2017-05-18T02:02:27.438Z,23.90
2017-05-18T02:04:54.764Z,23.90
2017-05-18T02:07:22.130Z,23.80
2017-05-18T02:09:49.482Z,23.80
2017-05-18T02:12:16.744Z,23.70
2017-05-18T02:14:44.082Z,23.70
2017-05-18T02:17:11.475Z,23.80
2017-05-18T02:19:38.832Z,23.80
2017-05-18T02:22:06.335Z,23.70
2017-05-18T02:24:33.697Z,23.70
2017-05-18T02:27:01.093Z,23.70
2017-05-18T02:29:28.410Z,23.70
2017-05-18T02:31:55.737Z,23.70
2017-05-18T02:34:23.064Z,23.70
2017-05-18T02:36:50.411Z,23.70
2017-05-18T02:39:17.753Z,23.70
2017-05-18T02:41:45.114Z,23.70
2017-05-18T02:44:12.474Z,23.70
2017-05-18T02:46:39.811Z,23.60
2017-05-18T02:49:07.145Z,23.60
2017-05-18T02:51:35.006Z,23.50
2017-05-18T02:54:02.361Z,23.40
2017-05-18T02:56:29.709Z,23.40
2017-05-18T02:58:57.057Z,23.40
2017-05-18T03:01:24.390Z,23.30
2017-05-18T03:03:51.711Z,23.20
2017-05-18T03:06:19.054Z,23.20
2017-05-18T03:08:46.314Z,23.20
2017-05-18T03:11:14.069Z,23.10
2017-05-18T03:13:41.441Z,23.10
2017-05-18T03:16:08.998Z,23.00
2017-05-18T03:18:36.365Z,22.90
2017-05-18T03:21:03.729Z,22.90
2017-05-18T03:23:31.474Z,22.90
2017-05-18T03:25:58.837Z,22.80
2017-05-18T03:28:26.197Z,22.80
2017-05-18T03:30:53.502Z,22.80
2017-05-18T03:33:20.817Z,22.80
2017-05-18T03:35:48.177Z,22.70
2017-05-18T03:38:15.529Z,22.70
2017-05-18T03:40:42.871Z,22.70
2017-05-18T03:43:10.245Z,22.60
2017-05-18T03:45:37.606Z,22.60
2017-05-18T03:48:04.975Z,22.60
2017-05-18T03:50:32.304Z,22.60
2017-05-18T03:52:59.680Z,22.60
2017-05-18T03:55:27.024Z,22.70
2017-05-18T03:57:54.406Z,22.60
2017-05-18T04:00:21.757Z,22.60
2017-05-18T04:02:49.117Z,22.60
2017-05-18T04:05:17.098Z,22.60
2017-05-18T04:07:44.787Z,22.70
2017-05-18T04:10:12.158Z,22.60
2017-05-18T04:12:39.474Z,22.50
2017-05-18T04:15:06.822Z,22.50
2017-05-18T04:17:34.187Z,22.60
2017-05-18T04:20:01.933Z,22.60
2017-05-18T04:22:29.260Z,22.70
2017-05-18T04:24:56.583Z,22.70
2017-05-18T04:27:23.899Z,22.60
2017-05-18T04:29:51.242Z,22.70
2017-05-18T04:32:18.613Z,22.60
2017-05-18T04:34:45.935Z,22.70
2017-05-18T04:37:13.295Z,22.70
2017-05-18T04:39:43.563Z,22.70
2017-05-18T04:42:10.915Z,22.60
2017-05-18T04:44:38.258Z,22.60
2017-05-18T04:47:05.663Z,22.60
2017-05-18T04:49:32.986Z,22.70
2017-05-18T04:52:00.342Z,22.70
2017-05-18T04:54:27.674Z,22.70
2017-05-18T04:56:55.017Z,22.70
2017-05-18T04:59:22.375Z,22.70
2017-05-18T05:01:49.710Z,22.90
2017-05-18T05:04:17.547Z,22.90
2017-05-18T05:06:45.013Z,23.10
2017-05-18T05:09:12.365Z,23.30
2017-05-18T05:11:40.270Z,23.50
2017-05-18T05:14:07.621Z,23.70
2017-05-18T05:16:34.958Z,23.90
2017-05-18T05:19:02.295Z,24.00
2017-05-18T05:21:29.653Z,24.30
2017-05-18T05:23:57.645Z,24.40
2017-05-18T05:26:25.061Z,24.70
2017-05-18T05:28:52.422Z,24.90
2017-05-18T05:31:19.806Z,24.90
2017-05-18T05:33:47.146Z,25.10
2017-05-18T05:36:14.465Z,25.10
2017-05-18T05:38:41.832Z,25.10
2017-05-18T05:41:09.214Z,24.90
2017-05-18T05:43:36.597Z,24.90
2017-05-18T05:46:04.117Z,25.00
2017-05-18T05:48:31.912Z,24.90
2017-05-18T05:50:59.234Z,24.70
2017-05-18T05:53:26.568Z,24.50
2017-05-18T05:55:53.933Z,24.20
2017-05-18T05:58:21.270Z,24.00
2017-05-18T06:00:48.532Z,23.80
2017-05-18T06:03:15.877Z,23.70
2017-05-18T06:05:43.213Z,23.50
2017-05-18T06:08:10.549Z,23.40
2017-05-18T06:10:37.878Z,23.30
2017-05-18T06:13:05.470Z,23.40
2017-05-18T06:15:32.921Z,23.40
2017-05-18T06:18:00.286Z,23.50
2017-05-18T06:20:27.565Z,23.60
2017-05-18T06:22:54.959Z,23.70
2017-05-18T06:25:22.281Z,23.80
2017-05-18T06:27:49.738Z,23.70
2017-05-18T06:30:17.249Z,23.70
2017-05-18T06:32:44.625Z,23.70
2017-05-18T06:35:12.121Z,23.70
2017-05-18T06:37:39.454Z,23.70
2017-05-18T06:40:06.885Z,23.50
2017-05-18T06:42:34.235Z,23.40
2017-05-18T06:45:01.610Z,23.30
2017-05-18T06:47:28.865Z,23.20
2017-05-18T06:49:56.229Z,23.10
2017-05-18T06:52:23.572Z,23.00
2017-05-18T06:54:50.882Z,22.80
2017-05-18T06:57:18.230Z,22.50
2017-05-18T06:59:45.566Z,22.10
2017-05-18T07:02:12.993Z,21.90
2017-05-18T07:04:40.358Z,21.80
2017-05-18T07:07:07.717Z,21.70
2017-05-18T07:09:35.073Z,21.80
2017-05-18T07:12:03.226Z,21.80
2017-05-18T07:14:30.541Z,21.90
2017-05-18T07:16:57.883Z,22.00
2017-05-18T07:19:25.250Z,22.20
2017-05-18T07:21:52.581Z,22.30
2017-05-18T07:24:19.938Z,22.30
2017-05-18T07:26:47.249Z,22.20
2017-05-18T07:29:14.607Z,22.20
2017-05-18T07:31:41.893Z,22.00
2017-05-18T07:34:09.311Z,21.90
2017-05-18T07:36:36.634Z,21.90
2017-05-18T07:39:03.957Z,22.00
2017-05-18T07:41:31.281Z,21.80
2017-05-18T07:43:58.623Z,21.70
2017-05-18T07:46:25.973Z,21.80
2017-05-18T07:48:53.349Z,21.90
2017-05-18T07:51:20.714Z,21.90
2017-05-18T07:53:48.064Z,22.00
2017-05-18T07:56:15.429Z,22.00
2017-05-18T07:58:42.746Z,22.00
2017-05-18T08:01:10.143Z,21.90
2017-05-18T08:03:37.485Z,22.00
2017-05-18T08:06:04.856Z,22.00
2017-05-18T08:08:32.264Z,22.00
2017-05-18T08:10:59.926Z,22.10
2017-05-18T08:13:27.248Z,22.20
2017-05-18T08:15:54.573Z,22.00
2017-05-18T08:18:21.946Z,21.80
2017-05-18T08:20:49.284Z,21.80
2017-05-18T08:23:16.637Z,21.90
2017-05-18T08:25:44.351Z,21.90
2017-05-18T08:28:11.722Z,21.90
2017-05-18T08:30:39.069Z,22.10
2017-05-18T08:33:06.468Z,22.10
2017-05-18T08:35:38.713Z,21.90
2017-05-18T08:38:06.267Z,21.80
2017-05-18T08:40:33.666Z,22.00
2017-05-18T08:43:01.021Z,22.10
2017-05-18T08:45:28.377Z,22.20
2017-05-18T08:47:56.779Z,22.30
2017-05-18T08:50:24.078Z,22.50
2017-05-18T08:52:51.426Z,22.20
2017-05-18T08:55:18.794Z,22.30
2017-05-18T08:57:46.136Z,22.40
2017-05-18T09:00:17.836Z,22.60
2017-05-18T09:02:45.234Z,22.80
2017-05-18T09:05:12.589Z,22.90
2017-05-18T09:07:39.967Z,23.10
2017-05-18T09:10:07.314Z,23.20
2017-05-18T09:12:39.662Z,23.30
2017-05-18T09:15:07.071Z,23.20
2017-05-18T09:17:34.401Z,23.30
2017-05-18T09:20:01.741Z,23.40
2017-05-18T09:22:29.082Z,23.50
2017-05-18T09:24:56.441Z,23.50
2017-05-18T09:27:23.797Z,23.60
2017-05-18T09:29:56.576Z,23.70
2017-05-18T09:32:24.097Z,23.90
2017-05-18T09:34:51.439Z,23.80
2017-05-18T09:37:18.774Z,23.90
2017-05-18T09:39:46.113Z,24.00
2017-05-18T09:42:13.478Z,24.30
2017-05-18T09:44:45.469Z,24.70
2017-05-18T09:47:12.890Z,24.90
2017-05-18T09:49:40.233Z,25.00
2017-05-18T09:52:07.560Z,25.10
2017-05-18T09:54:34.882Z,25.10
2017-05-18T09:57:02.204Z,25.40
2017-05-18T09:59:29.559Z,25.80
2017-05-18T10:02:00.724Z,26.00
2017-05-18T10:04:28.074Z,26.10
2017-05-18T10:06:55.401Z,26.10
2017-05-18T10:09:22.723Z,25.90
2017-05-18T10:11:50.041Z,25.70
2017-05-18T10:14:17.391Z,25.30
2017-05-18T10:16:49.816Z,24.90
2017-05-18T10:19:17.182Z,24.70
2017-05-18T10:21:44.513Z,24.40
2017-05-18T10:24:11.748Z,24.20
2017-05-18T10:26:39.106Z,24.00
2017-05-18T10:29:06.508Z,23.70
2017-05-18T10:31:37.149Z,23.40
2017-05-18T10:34:04.535Z,23.20
2017-05-18T10:36:31.834Z,23.10
2017-05-18T10:38:59.173Z,23.00
2017-05-18T10:41:26.469Z,23.00
2017-05-18T10:43:53.830Z,23.00
2017-05-18T10:46:25.470Z,23.00
2017-05-18T10:48:52.924Z,23.00
2017-05-18T10:51:20.225Z,23.20
2017-05-18T10:53:47.590Z,23.10
2017-05-18T10:56:14.954Z,23.20
2017-05-18T10:58:42.289Z,23.20
2017-05-18T11:01:12.725Z,23.20
2017-05-18T11:03:40.082Z,23.20
2017-05-18T11:06:07.470Z,23.10
2017-05-18T11:08:34.862Z,23.10
2017-05-18T11:11:02.231Z,23.10
2017-05-18T11:13:31.699Z,22.80
2017-05-18T11:16:01.717Z,22.60
2017-05-18T11:18:29.047Z,22.60
2017-05-18T11:20:56.402Z,22.40
2017-05-18T11:23:23.753Z,22.40
2017-05-18T11:25:51.100Z,22.30
2017-05-18T11:28:18.438Z,22.20
2017-05-18T11:30:45.815Z,22.20
2017-05-18T11:33:13.143Z,22.20
2017-05-18T11:35:40.505Z,22.10
2017-05-18T11:38:07.889Z,22.00
2017-05-18T11:40:35.229Z,21.90
2017-05-18T11:43:02.578Z,21.80
2017-05-18T11:45:29.902Z,21.70
2017-05-18T11:47:57.222Z,21.30
2017-05-18T11:50:24.597Z,21.00
2017-05-18T11:52:51.941Z,20.30
2017-05-18T11:55:19.262Z,20.20
2017-05-18T11:57:46.577Z,20.00
2017-05-18T12:00:13.914Z,19.90
2017-05-18T12:02:41.313Z,19.70
2017-05-18T12:05:08.654Z,19.50
2017-05-18T12:07:36.007Z,19.40
2017-05-18T12:10:03.341Z,19.20
2017-05-18T12:12:30.661Z,19.10
2017-05-18T12:14:58.021Z,19.10
2017-05-18T12:17:25.389Z,19.10
2017-05-18T12:19:52.718Z,18.90
2017-05-18T12:22:20.077Z,18.80
2017-05-18T12:24:47.370Z,18.80
2017-05-18T12:27:14.770Z,18.80
2017-05-18T12:29:42.189Z,18.80
2017-05-18T12:32:09.555Z,18.80
2017-05-18T12:34:36.911Z,18.90
2017-05-18T12:37:04.342Z,19.00
2017-05-18T12:39:31.713Z,19.20
2017-05-18T12:41:59.119Z,19.40
2017-05-18T12:44:26.494Z,19.50
2017-05-18T12:46:53.873Z,19.60
2017-05-18T12:49:21.202Z,19.50
2017-05-18T12:51:48.596Z,19.60
2017-05-18T12:54:15.925Z,19.50
2017-05-18T12:56:43.281Z,19.60
2017-05-18T12:59:10.669Z,19.60
2017-05-18T13:01:41.979Z,19.50
2017-05-18T13:04:09.374Z,19.50
2017-05-18T13:06:36.777Z,19.50
2017-05-18T13:09:04.170Z,19.50
2017-05-18T13:11:31.514Z,19.50
2017-05-18T13:13:58.892Z,19.50
2017-05-18T13:16:26.249Z,19.40
2017-05-18T13:18:53.606Z,19.30
2017-05-18T13:21:20.977Z,19.10
2017-05-18T13:23:48.311Z,19.10
2017-05-18T13:26:15.642Z,19.20
2017-05-18T13:28:43.025Z,19.30
2017-05-18T13:31:10.301Z,19.10
2017-05-18T13:33:37.678Z,19.10
2017-05-18T13:36:05.030Z,19.20
2017-05-18T13:38:33.342Z,19.20
2017-05-18T13:41:00.897Z,19.20
2017-05-18T13:43:28.271Z,19.20
2017-05-18T13:45:55.605Z,19.20
2017-05-18T13:48:22.964Z,19.30
2017-05-18T13:50:50.302Z,19.40
2017-05-18T13:53:18.549Z,19.50
2017-05-18T13:55:45.908Z,19.50
2017-05-18T13:58:13.280Z,19.40
2017-05-18T14:00:40.754Z,19.40
2017-05-18T14:03:08.157Z,19.40
2017-05-18T14:05:35.513Z,19.50
2017-05-18T14:08:02.855Z,19.50
2017-05-18T14:10:30.205Z,19.50
2017-05-18T14:12:57.526Z,19.50
2017-05-18T14:15:24.853Z,19.60
2017-05-18T14:17:52.274Z,19.60
2017-05-18T14:20:20.570Z,19.70
2017-05-18T14:22:47.969Z,19.80
2017-05-18T14:25:16.405Z,19.80
2017-05-18T14:27:43.870Z,19.90
2017-05-18T14:30:11.249Z,19.50
2017-05-18T14:32:39.113Z,19.70
2017-05-18T14:35:06.446Z,19.60
2017-05-18T14:37:33.870Z,19.60
2017-05-18T14:40:02.990Z,19.70
2017-05-18T14:42:30.511Z,19.70
2017-05-18T14:44:58.111Z,19.90
2017-05-18T14:47:25.377Z,19.90
2017-05-18T14:49:52.780Z,19.90
2017-05-18T14:52:20.121Z,19.90
2017-05-18T14:54:47.661Z,19.90
2017-05-18T14:57:15.314Z,20.00
2017-05-18T14:59:42.734Z,20.10
2017-05-18T15:02:10.258Z,20.30
2017-05-18T15:04:37.769Z,20.40
2017-05-18T15:07:05.138Z,20.50
2017-05-18T15:09:32.724Z,20.50
2017-05-18T15:12:00.022Z,20.60
2017-05-18T15:14:27.347Z,20.70
2017-05-18T15:16:54.786Z,20.70
2017-05-18T15:19:22.162Z,20.70
2017-05-18T15:21:49.625Z,20.80
2017-05-18T15:24:16.996Z,20.80
2017-05-18T15:26:49.558Z,20.90
2017-05-18T15:29:17.207Z,21.00
2017-05-18T15:31:45.321Z,20.90
2017-05-18T15:34:12.914Z,21.00
2017-05-18T15:36:40.314Z,20.90
2017-05-18T15:39:11.377Z,20.90
2017-05-18T15:41:38.749Z,20.90
2017-05-18T15:44:06.086Z,20.80
2017-05-18T15:46:33.653Z,20.70
2017-05-18T15:49:01.118Z,20.70
2017-05-18T15:51:28.465Z,20.70
2017-05-18T15:53:58.761Z,20.70
2017-05-18T15:56:26.205Z,20.60
2017-05-18T15:58:53.575Z,20.60
2017-05-18T16:01:20.932Z,20.50
2017-05-18T16:03:48.274Z,20.50
2017-05-18T16:06:15.658Z,20.40
2017-05-18T16:08:42.997Z,20.40
2017-05-18T16:11:13.106Z,20.40
2017-05-18T16:13:40.438Z,20.20
2017-05-18T16:16:07.885Z,20.30
2017-05-18T16:18:35.622Z,20.10
2017-05-18T16:21:03.193Z,20.10
2017-05-18T16:23:30.541Z,20.00
2017-05-18T16:25:57.890Z,20.00
2017-05-18T16:28:27.334Z,20.00
2017-05-18T16:30:54.650Z,19.90
2017-05-18T16:33:22.354Z,20.00
2017-05-18T16:35:49.786Z,20.00
2017-05-18T16:38:17.204Z,19.90
2017-05-18T16:40:49.709Z,20.00
2017-05-18T16:43:17.095Z,20.10
2017-05-18T16:45:44.666Z,20.00
2017-05-18T16:48:11.991Z,20.10
2017-05-18T16:50:39.354Z,20.10
2017-05-18T16:53:06.735Z,20.20
2017-05-18T16:55:34.234Z,20.20
2017-05-18T16:58:01.640Z,20.20
2017-05-18T17:00:29.005Z,20.30
2017-05-18T17:02:56.342Z,20.20
2017-05-18T17:05:23.721Z,20.10
2017-05-18T17:07:51.073Z,20.20
2017-05-18T17:10:18.394Z,20.10
2017-05-18T17:12:46.060Z,20.00
2017-05-18T17:15:13.397Z,20.10
2017-05-18T17:17:40.766Z,20.20
2017-05-18T17:20:08.157Z,20.20
2017-05-18T17:22:35.534Z,20.20
2017-05-18T17:25:03.076Z,20.40
2017-05-18T17:27:30.515Z,20.30
2017-05-18T17:29:57.763Z,20.40
2017-05-18T17:32:25.106Z,20.30
2017-05-18T17:34:52.510Z,20.40
2017-05-18T17:37:19.866Z,20.40
2017-05-18T17:39:47.304Z,20.40
2017-05-18T17:42:14.773Z,20.50
2017-05-18T17:44:42.198Z,20.50
2017-05-18T17:47:09.554Z,20.40
2017-05-18T17:49:36.918Z,20.40
2017-05-18T17:52:05.043Z,20.50
2017-05-18T17:54:32.448Z,20.40
2017-05-18T17:56:59.794Z,20.30
2017-05-18T17:59:27.248Z,20.20
2017-05-18T18:01:54.721Z,20.10
2017-05-18T18:04:22.119Z,20.00
2017-05-18T18:06:49.468Z,20.00
2017-05-18T18:09:16.893Z,19.90
2017-05-18T18:11:44.452Z,19.80
2017-05-18T18:14:11.923Z,19.90
2017-05-18T18:16:39.310Z,19.90
2017-05-18T18:19:06.641Z,19.90
2017-05-18T18:21:35.137Z,19.90
2017-05-18T18:24:02.465Z,19.90
2017-05-18T18:26:29.878Z,19.90
2017-05-18T18:29:02.446Z,20.00
2017-05-18T18:31:29.863Z,19.90
2017-05-18T18:33:57.194Z,19.80
2017-05-18T18:36:24.517Z,19.80
2017-05-18T18:38:51.877Z,19.60
2017-05-18T18:41:19.223Z,19.70
2017-05-18T18:43:46.580Z,19.80
2017-05-18T18:46:16.865Z,19.80
2017-05-18T18:48:44.242Z,19.70
2017-05-18T18:51:11.578Z,19.70
2017-05-18T18:53:38.909Z,19.70
2017-05-18T18:56:06.238Z,19.70
2017-05-18T18:58:33.705Z,19.70
2017-05-18T19:01:01.110Z,19.70
2017-05-18T19:03:28.498Z,19.80
2017-05-18T19:05:55.918Z,19.80
2017-05-18T19:08:23.286Z,19.80
2017-05-18T19:10:50.534Z,19.80
2017-05-18T19:13:17.955Z,19.80
2017-05-18T19:15:45.259Z,19.80
2017-05-18T19:18:12.667Z,19.70
2017-05-18T19:20:40.858Z,19.80
2017-05-18T19:23:08.371Z,19.70
2017-05-18T19:25:35.715Z,19.70
2017-05-18T19:28:03.535Z,19.60
2017-05-18T19:30:30.782Z,19.60
2017-05-18T19:32:58.138Z,19.60
2017-05-18T19:35:25.605Z,19.60
2017-05-18T19:37:54.754Z,19.60
2017-05-18T19:40:22.230Z,19.60
2017-05-18T19:42:49.702Z,19.50
2017-05-18T19:45:17.053Z,19.50
2017-05-18T19:47:44.282Z,19.50
2017-05-18T19:50:11.728Z,19.50
2017-05-18T19:52:39.165Z,19.40
2017-05-18T19:55:06.533Z,19.40
2017-05-18T19:57:33.885Z,19.40
2017-05-18T20:00:01.287Z,19.40
2017-05-18T20:02:28.675Z,19.40
2017-05-18T20:04:55.998Z,19.40
2017-05-18T20:07:23.322Z,19.30
2017-05-18T20:09:50.753Z,19.30
2017-05-18T20:12:18.118Z,19.30
2017-05-18T20:14:45.523Z,19.20
2017-05-18T20:17:12.962Z,19.20
2017-05-18T20:19:40.607Z,19.20
2017-05-18T20:22:08.413Z,19.20
2017-05-18T20:24:35.762Z,19.30
2017-05-18T20:27:03.138Z,19.20
2017-05-18T20:29:30.474Z,19.10
2017-05-18T20:31:57.834Z,19.10
2017-05-18T20:34:25.256Z,19.10
2017-05-18T20:36:52.630Z,19.10
2017-05-18T20:39:19.970Z,19.10
2017-05-18T20:41:47.309Z,19.10
2017-05-18T20:44:14.690Z,19.10
2017-05-18T20:46:42.058Z,19.00
2017-05-18T20:49:09.409Z,19.00
2017-05-18T20:51:36.791Z,19.00
2017-05-18T20:54:04.143Z,19.00
2017-05-18T20:56:35.845Z,18.90
2017-05-18T20:59:03.282Z,18.90
2017-05-18T21:01:30.642Z,18.80
2017-05-18T21:03:58.859Z,18.90
2017-05-18T21:06:26.245Z,18.80
2017-05-18T21:08:53.577Z,18.80
2017-05-18T21:11:20.902Z,18.70
2017-05-18T21:13:48.305Z,18.70
2017-05-18T21:16:15.774Z,18.70
2017-05-18T21:18:43.113Z,18.70
2017-05-18T21:21:10.482Z,18.70
2017-05-18T21:23:37.832Z,18.70
2017-05-18T21:26:05.161Z,18.70
2017-05-18T21:28:32.502Z,18.60
2017-05-18T21:30:59.854Z,18.60
2017-05-18T21:33:27.169Z,18.50
2017-05-18T21:35:54.509Z,18.60
2017-05-18T21:38:21.816Z,18.60
2017-05-18T21:40:49.170Z,18.60
2017-05-18T21:43:16.525Z,18.60
2017-05-18T21:45:43.879Z,18.60
2017-05-18T21:48:11.213Z,18.70
2017-05-18T21:50:38.657Z,18.70
2017-05-18T21:53:05.986Z,18.60
2017-05-18T21:55:33.330Z,18.60
2017-05-18T21:58:00.677Z,18.50
2017-05-18T22:00:28.094Z,18.50
2017-05-18T22:02:55.418Z,18.50
2017-05-18T22:05:22.785Z,18.50
2017-05-18T22:07:50.150Z,18.50
2017-05-18T22:10:17.490Z,18.50
2017-05-18T22:12:44.817Z,18.50
2017-05-18T22:15:12.190Z,18.50
2017-05-18T22:17:39.406Z,18.50
2017-05-18T22:20:06.744Z,18.50
2017-05-18T22:22:34.046Z,18.50
2017-05-18T22:25:01.403Z,18.50
2017-05-18T22:27:28.778Z,18.50
2017-05-18T22:29:56.074Z,18.40
2017-05-18T22:32:26.721Z,18.50
2017-05-18T22:34:54.110Z,18.40
2017-05-18T22:37:21.441Z,18.40
2017-05-18T22:39:48.762Z,18.40
2017-05-18T22:42:16.087Z,18.40
2017-05-18T22:44:43.431Z,18.40
2017-05-18T22:47:10.937Z,18.30
2017-05-18T22:49:38.316Z,18.60
2017-05-18T22:52:05.658Z,18.40
2017-05-18T22:54:33.035Z,18.30
2017-05-18T22:57:00.381Z,18.30
2017-05-18T22:59:27.709Z,18.30
2017-05-18T23:01:55.121Z,18.20
2017-05-18T23:04:22.463Z,18.20
2017-05-18T23:06:49.866Z,18.20
2017-05-18T23:09:17.225Z,18.20
2017-05-18T23:11:44.440Z,18.10
2017-05-18T23:14:11.802Z,18.20
2017-05-18T23:16:39.196Z,18.10
2017-05-18T23:19:06.570Z,18.10
2017-05-18T23:21:33.921Z,18.10
2017-05-18T23:24:01.251Z,18.00
2017-05-18T23:26:28.557Z,18.00
2017-05-18T23:28:55.886Z,18.00
2017-05-18T23:31:23.254Z,18.10
2017-05-18T23:33:50.593Z,18.00
2017-05-18T23:36:17.953Z,18.10
2017-05-18T23:38:45.313Z,18.10
2017-05-18T23:41:12.685Z,17.90
2017-05-18T23:43:40.005Z,17.80
2017-05-18T23:46:07.366Z,17.80
2017-05-18T23:48:34.651Z,17.80
2017-05-18T23:51:02.083Z,17.80
2017-05-18T23:53:29.426Z,17.80
2017-05-18T23:55:56.641Z,17.90
2017-05-18T23:58:23.962Z,17.80
